sensor_id;sensor_type;location;lat;lon;timestamp;P1;durP1;ratioP1;P2;durP2;ratioP2
31336;SDS011;22846;42.654;23.314;2023-12-20T00:02:25;15.38;;;10.27;;
31336;SDS011;22846;42.654;23.314;2023-12-20T00:04:50;14.63;;;10.23;;
31336;SDS011;22846;42.654;23.314;2023-12-20T00:07:16;15.88;;;10.98;;
31336;SDS011;22846;42.654;23.314;2023-12-20T00:09:41;15.65;;;10.95;;
31336;SDS011;22846;42.654;23.314;2023-12-20T00:12:06;15.38;;;10.68;;
31336;SDS011;22846;42.654;23.314;2023-12-20T00:14:32;16.38;;;10.93;;
31336;SDS011;22846;42.654;23.314;2023-12-20T00:16:57;14.18;;;10.57;;
31336;SDS011;22846;42.654;23.314;2023-12-20T00:19:23;17.60;;;11.15;;
31336;SDS011;22846;42.654;23.314;2023-12-20T00:21:49;14.80;;;10.80;;
31336;SDS011;22846;42.654;23.314;2023-12-20T00:24:14;13.98;;;10.50;;
31336;SDS011;22846;42.654;23.314;2023-12-20T00:26:40;14.25;;;10.15;;
31336;SDS011;22846;42.654;23.314;2023-12-20T00:29:05;14.30;;;10.57;;
31336;SDS011;22846;42.654;23.314;2023-12-20T00:31:30;14.40;;;10.65;;
31336;SDS011;22846;42.654;23.314;2023-12-20T00:33:56;12.63;;;9.65;;
31336;SDS011;22846;42.654;23.314;2023-12-20T00:36:24;14.77;;;10.52;;
31336;SDS011;22846;42.654;23.314;2023-12-20T00:38:50;12.90;;;9.48;;
31336;SDS011;22846;42.654;23.314;2023-12-20T00:41:16;14.02;;;9.88;;
31336;SDS011;22846;42.654;23.314;2023-12-20T00:43:41;15.55;;;10.32;;
31336;SDS011;22846;42.654;23.314;2023-12-20T00:46:07;13.25;;;9.70;;
31336;SDS011;22846;42.654;23.314;2023-12-20T00:48:32;14.73;;;9.77;;
31336;SDS011;22846;42.654;23.314;2023-12-20T00:50:58;13.60;;;9.55;;
31336;SDS011;22846;42.654;23.314;2023-12-20T00:53:23;12.82;;;9.13;;
31336;SDS011;22846;42.654;23.314;2023-12-20T00:55:49;13.85;;;9.35;;
31336;SDS011;22846;42.654;23.314;2023-12-20T00:58:15;13.82;;;9.55;;
31336;SDS011;22846;42.654;23.314;2023-12-20T01:00:41;13.80;;;9.65;;
31336;SDS011;22846;42.654;23.314;2023-12-20T01:03:08;13.27;;;9.80;;
31336;SDS011;22846;42.654;23.314;2023-12-20T01:05:33;12.63;;;9.50;;
31336;SDS011;22846;42.654;23.314;2023-12-20T01:07:59;13.55;;;9.50;;
31336;SDS011;22846;42.654;23.314;2023-12-20T01:10:24;13.48;;;9.68;;
31336;SDS011;22846;42.654;23.314;2023-12-20T01:12:53;11.55;;;9.05;;
31336;SDS011;22846;42.654;23.314;2023-12-20T01:15:18;11.40;;;8.82;;
31336;SDS011;22846;42.654;23.314;2023-12-20T01:17:44;11.32;;;8.73;;
31336;SDS011;22846;42.654;23.314;2023-12-20T01:20:09;14.23;;;9.38;;
31336;SDS011;22846;42.654;23.314;2023-12-20T01:22:35;12.00;;;8.82;;
31336;SDS011;22846;42.654;23.314;2023-12-20T01:25:01;13.40;;;9.00;;
31336;SDS011;22846;42.654;23.314;2023-12-20T01:27:27;13.80;;;9.25;;
31336;SDS011;22846;42.654;23.314;2023-12-20T01:29:53;11.60;;;8.95;;
31336;SDS011;22846;42.654;23.314;2023-12-20T01:32:18;12.52;;;9.23;;
31336;SDS011;22846;42.654;23.314;2023-12-20T01:34:43;11.63;;;8.88;;
31336;SDS011;22846;42.654;23.314;2023-12-20T01:37:09;13.93;;;9.45;;
31336;SDS011;22846;42.654;23.314;2023-12-20T01:39:34;11.90;;;8.93;;
31336;SDS011;22846;42.654;23.314;2023-12-20T01:41:59;13.32;;;8.95;;
31336;SDS011;22846;42.654;23.314;2023-12-20T01:44:25;13.10;;;8.85;;
31336;SDS011;22846;42.654;23.314;2023-12-20T01:46:51;11.75;;;8.18;;
31336;SDS011;22846;42.654;23.314;2023-12-20T01:49:17;11.00;;;8.60;;
31336;SDS011;22846;42.654;23.314;2023-12-20T01:51:42;12.57;;;8.70;;
31336;SDS011;22846;42.654;23.314;2023-12-20T01:54:08;15.07;;;8.98;;
31336;SDS011;22846;42.654;23.314;2023-12-20T01:56:34;11.10;;;8.77;;
31336;SDS011;22846;42.654;23.314;2023-12-20T01:59:00;11.25;;;8.25;;
31336;SDS011;22846;42.654;23.314;2023-12-20T02:01:26;11.35;;;8.45;;
31336;SDS011;22846;42.654;23.314;2023-12-20T02:03:53;10.63;;;8.15;;
31336;SDS011;22846;42.654;23.314;2023-12-20T02:06:19;10.18;;;7.47;;
31336;SDS011;22846;42.654;23.314;2023-12-20T02:08:47;10.95;;;8.27;;
31336;SDS011;22846;42.654;23.314;2023-12-20T02:11:14;11.75;;;8.10;;
31336;SDS011;22846;42.654;23.314;2023-12-20T02:13:40;11.10;;;8.00;;
31336;SDS011;22846;42.654;23.314;2023-12-20T02:16:05;11.35;;;8.18;;
31336;SDS011;22846;42.654;23.314;2023-12-20T02:18:32;9.55;;;7.03;;
31336;SDS011;22846;42.654;23.314;2023-12-20T02:20:58;11.73;;;8.45;;
31336;SDS011;22846;42.654;23.314;2023-12-20T02:23:23;9.70;;;7.53;;
31336;SDS011;22846;42.654;23.314;2023-12-20T02:25:49;10.27;;;7.70;;
31336;SDS011;22846;42.654;23.314;2023-12-20T02:28:14;12.50;;;7.90;;
31336;SDS011;22846;42.654;23.314;2023-12-20T02:30:40;9.18;;;7.28;;
31336;SDS011;22846;42.654;23.314;2023-12-20T02:33:07;9.85;;;7.43;;
31336;SDS011;22846;42.654;23.314;2023-12-20T02:35:36;10.02;;;7.65;;
31336;SDS011;22846;42.654;23.314;2023-12-20T02:38:01;9.30;;;7.15;;
31336;SDS011;22846;42.654;23.314;2023-12-20T02:40:27;9.88;;;7.53;;
31336;SDS011;22846;42.654;23.314;2023-12-20T02:42:52;8.90;;;7.20;;
31336;SDS011;22846;42.654;23.314;2023-12-20T02:45:18;10.18;;;7.30;;
31336;SDS011;22846;42.654;23.314;2023-12-20T02:47:43;9.70;;;7.10;;
31336;SDS011;22846;42.654;23.314;2023-12-20T02:50:08;8.57;;;6.63;;
31336;SDS011;22846;42.654;23.314;2023-12-20T02:52:34;9.25;;;7.22;;
31336;SDS011;22846;42.654;23.314;2023-12-20T02:54:59;9.85;;;6.97;;
31336;SDS011;22846;42.654;23.314;2023-12-20T02:57:24;9.48;;;7.07;;
31336;SDS011;22846;42.654;23.314;2023-12-20T02:59:50;9.05;;;6.80;;
31336;SDS011;22846;42.654;23.314;2023-12-20T03:02:15;9.02;;;6.78;;
31336;SDS011;22846;42.654;23.314;2023-12-20T03:04:41;9.15;;;7.00;;
31336;SDS011;22846;42.654;23.314;2023-12-20T03:07:06;10.45;;;7.43;;
31336;SDS011;22846;42.654;23.314;2023-12-20T03:09:31;9.70;;;6.82;;
31336;SDS011;22846;42.654;23.314;2023-12-20T03:11:57;8.82;;;6.38;;
31336;SDS011;22846;42.654;23.314;2023-12-20T03:14:22;8.20;;;6.70;;
31336;SDS011;22846;42.654;23.314;2023-12-20T03:16:50;8.52;;;6.68;;
31336;SDS011;22846;42.654;23.314;2023-12-20T03:19:16;9.82;;;7.07;;
31336;SDS011;22846;42.654;23.314;2023-12-20T03:21:43;9.43;;;6.78;;
31336;SDS011;22846;42.654;23.314;2023-12-20T03:24:09;9.00;;;7.13;;
31336;SDS011;22846;42.654;23.314;2023-12-20T03:26:34;8.18;;;6.70;;
31336;SDS011;22846;42.654;23.314;2023-12-20T03:29:00;8.65;;;6.60;;
31336;SDS011;22846;42.654;23.314;2023-12-20T03:31:25;10.45;;;7.20;;
31336;SDS011;22846;42.654;23.314;2023-12-20T03:33:50;9.32;;;7.13;;
31336;SDS011;22846;42.654;23.314;2023-12-20T03:36:18;9.65;;;6.75;;
31336;SDS011;22846;42.654;23.314;2023-12-20T03:38:44;7.80;;;6.43;;
31336;SDS011;22846;42.654;23.314;2023-12-20T03:41:09;9.75;;;6.60;;
31336;SDS011;22846;42.654;23.314;2023-12-20T03:43:34;9.45;;;6.88;;
31336;SDS011;22846;42.654;23.314;2023-12-20T03:46:00;9.75;;;7.03;;
31336;SDS011;22846;42.654;23.314;2023-12-20T03:48:25;8.70;;;6.50;;
31336;SDS011;22846;42.654;23.314;2023-12-20T03:50:51;8.30;;;6.57;;
31336;SDS011;22846;42.654;23.314;2023-12-20T03:53:16;8.75;;;6.50;;
31336;SDS011;22846;42.654;23.314;2023-12-20T03:55:42;8.60;;;6.47;;
31336;SDS011;22846;42.654;23.314;2023-12-20T03:58:07;9.95;;;7.15;;
31336;SDS011;22846;42.654;23.314;2023-12-20T04:00:33;10.15;;;6.63;;
31336;SDS011;22846;42.654;23.314;2023-12-20T04:02:58;8.82;;;6.20;;
31336;SDS011;22846;42.654;23.314;2023-12-20T04:05:23;10.30;;;7.10;;
31336;SDS011;22846;42.654;23.314;2023-12-20T04:07:49;8.38;;;7.00;;
31336;SDS011;22846;42.654;23.314;2023-12-20T04:10:15;7.88;;;6.22;;
31336;SDS011;22846;42.654;23.314;2023-12-20T04:12:41;7.85;;;6.22;;
31336;SDS011;22846;42.654;23.314;2023-12-20T04:15:06;8.60;;;6.53;;
31336;SDS011;22846;42.654;23.314;2023-12-20T04:17:34;9.48;;;7.05;;
31336;SDS011;22846;42.654;23.314;2023-12-20T04:20:00;8.13;;;6.28;;
31336;SDS011;22846;42.654;23.314;2023-12-20T04:22:26;8.88;;;6.63;;
31336;SDS011;22846;42.654;23.314;2023-12-20T04:24:51;9.13;;;6.53;;
31336;SDS011;22846;42.654;23.314;2023-12-20T04:27:17;8.43;;;6.25;;
31336;SDS011;22846;42.654;23.314;2023-12-20T04:29:42;9.00;;;6.70;;
31336;SDS011;22846;42.654;23.314;2023-12-20T04:32:08;8.20;;;6.03;;
31336;SDS011;22846;42.654;23.314;2023-12-20T04:34:33;8.60;;;6.18;;
31336;SDS011;22846;42.654;23.314;2023-12-20T04:36:58;8.13;;;6.10;;
31336;SDS011;22846;42.654;23.314;2023-12-20T04:39:24;8.27;;;6.05;;
31336;SDS011;22846;42.654;23.314;2023-12-20T04:41:49;9.40;;;6.20;;
31336;SDS011;22846;42.654;23.314;2023-12-20T04:44:15;8.15;;;6.28;;
31336;SDS011;22846;42.654;23.314;2023-12-20T04:46:41;6.53;;;5.40;;
31336;SDS011;22846;42.654;23.314;2023-12-20T04:49:06;7.10;;;5.63;;
31336;SDS011;22846;42.654;23.314;2023-12-20T04:51:35;9.27;;;6.25;;
31336;SDS011;22846;42.654;23.314;2023-12-20T04:54:01;8.55;;;6.30;;
31336;SDS011;22846;42.654;23.314;2023-12-20T04:56:27;7.68;;;5.93;;
31336;SDS011;22846;42.654;23.314;2023-12-20T04:58:52;7.78;;;5.95;;
31336;SDS011;22846;42.654;23.314;2023-12-20T05:01:18;7.30;;;5.70;;
31336;SDS011;22846;42.654;23.314;2023-12-20T05:03:43;6.65;;;5.70;;
31336;SDS011;22846;42.654;23.314;2023-12-20T05:06:09;8.77;;;5.97;;
31336;SDS011;22846;42.654;23.314;2023-12-20T05:08:35;7.85;;;6.00;;
31336;SDS011;22846;42.654;23.314;2023-12-20T05:11:00;7.40;;;5.63;;
31336;SDS011;22846;42.654;23.314;2023-12-20T05:13:26;8.00;;;6.15;;
31336;SDS011;22846;42.654;23.314;2023-12-20T05:15:53;8.27;;;5.63;;
31336;SDS011;22846;42.654;23.314;2023-12-20T05:18:18;6.93;;;5.47;;
31336;SDS011;22846;42.654;23.314;2023-12-20T05:20:45;9.80;;;6.10;;
31336;SDS011;22846;42.654;23.314;2023-12-20T05:23:11;9.77;;;5.78;;
31336;SDS011;22846;42.654;23.314;2023-12-20T05:25:38;11.68;;;6.20;;
31336;SDS011;22846;42.654;23.314;2023-12-20T05:28:03;16.38;;;8.07;;
31336;SDS011;22846;42.654;23.314;2023-12-20T05:30:29;12.07;;;7.35;;
31336;SDS011;22846;42.654;23.314;2023-12-20T05:32:56;15.77;;;8.82;;
31336;SDS011;22846;42.654;23.314;2023-12-20T05:35:21;21.42;;;11.18;;
31336;SDS011;22846;42.654;23.314;2023-12-20T05:37:48;24.45;;;11.73;;
31336;SDS011;22846;42.654;23.314;2023-12-20T05:40:14;23.58;;;12.15;;
31336;SDS011;22846;42.654;23.314;2023-12-20T05:42:39;25.80;;;13.40;;
31336;SDS011;22846;42.654;23.314;2023-12-20T05:45:05;21.40;;;12.75;;
31336;SDS011;22846;42.654;23.314;2023-12-20T05:47:31;25.98;;;12.02;;
31336;SDS011;22846;42.654;23.314;2023-12-20T05:49:56;20.25;;;11.38;;
31336;SDS011;22846;42.654;23.314;2023-12-20T05:52:22;20.73;;;12.02;;
31336;SDS011;22846;42.654;23.314;2023-12-20T05:54:47;16.80;;;11.13;;
31336;SDS011;22846;42.654;23.314;2023-12-20T05:57:13;28.17;;;11.65;;
31336;SDS011;22846;42.654;23.314;2023-12-20T05:59:38;18.38;;;11.15;;
31336;SDS011;22846;42.654;23.314;2023-12-20T06:02:04;17.52;;;10.25;;
31336;SDS011;22846;42.654;23.314;2023-12-20T06:04:30;16.83;;;10.57;;
31336;SDS011;22846;42.654;23.314;2023-12-20T06:06:55;18.13;;;10.60;;
31336;SDS011;22846;42.654;23.314;2023-12-20T06:09:21;26.50;;;11.10;;
31336;SDS011;22846;42.654;23.314;2023-12-20T06:11:46;16.58;;;10.60;;
31336;SDS011;22846;42.654;23.314;2023-12-20T06:14:12;19.38;;;10.40;;
31336;SDS011;22846;42.654;23.314;2023-12-20T06:16:37;17.88;;;10.98;;
31336;SDS011;22846;42.654;23.314;2023-12-20T06:19:02;18.15;;;10.82;;
31336;SDS011;22846;42.654;23.314;2023-12-20T06:21:28;17.23;;;11.02;;
31336;SDS011;22846;42.654;23.314;2023-12-20T06:23:53;17.02;;;10.32;;
31336;SDS011;22846;42.654;23.314;2023-12-20T06:26:20;16.95;;;10.75;;
31336;SDS011;22846;42.654;23.314;2023-12-20T06:28:45;19.38;;;11.18;;
31336;SDS011;22846;42.654;23.314;2023-12-20T06:31:11;18.08;;;10.52;;
31336;SDS011;22846;42.654;23.314;2023-12-20T06:33:36;16.80;;;11.30;;
31336;SDS011;22846;42.654;23.314;2023-12-20T06:36:02;14.55;;;10.25;;
31336;SDS011;22846;42.654;23.314;2023-12-20T06:38:27;18.95;;;11.82;;
31336;SDS011;22846;42.654;23.314;2023-12-20T06:40:53;16.92;;;11.27;;
31336;SDS011;22846;42.654;23.314;2023-12-20T06:43:18;16.98;;;11.32;;
31336;SDS011;22846;42.654;23.314;2023-12-20T06:45:44;18.25;;;11.52;;
31336;SDS011;22846;42.654;23.314;2023-12-20T06:48:09;18.90;;;11.50;;
31336;SDS011;22846;42.654;23.314;2023-12-20T06:50:37;17.58;;;11.13;;
31336;SDS011;22846;42.654;23.314;2023-12-20T06:53:05;15.85;;;10.88;;
31336;SDS011;22846;42.654;23.314;2023-12-20T06:55:32;17.05;;;10.93;;
31336;SDS011;22846;42.654;23.314;2023-12-20T06:57:58;16.95;;;11.05;;
31336;SDS011;22846;42.654;23.314;2023-12-20T07:00:23;16.40;;;11.00;;
31336;SDS011;22846;42.654;23.314;2023-12-20T07:02:48;15.48;;;10.60;;
31336;SDS011;22846;42.654;23.314;2023-12-20T07:05:16;14.70;;;10.65;;
31336;SDS011;22846;42.654;23.314;2023-12-20T07:07:42;16.98;;;10.00;;
31336;SDS011;22846;42.654;23.314;2023-12-20T07:10:07;18.58;;;10.95;;
31336;SDS011;22846;42.654;23.314;2023-12-20T07:12:33;17.33;;;10.73;;
31336;SDS011;22846;42.654;23.314;2023-12-20T07:14:58;17.35;;;11.25;;
31336;SDS011;22846;42.654;23.314;2023-12-20T07:17:24;17.70;;;10.75;;
31336;SDS011;22846;42.654;23.314;2023-12-20T07:19:49;14.55;;;10.38;;
31336;SDS011;22846;42.654;23.314;2023-12-20T07:22:15;16.08;;;10.40;;
31336;SDS011;22846;42.654;23.314;2023-12-20T07:24:40;15.68;;;10.25;;
31336;SDS011;22846;42.654;23.314;2023-12-20T07:27:05;15.57;;;10.65;;
31336;SDS011;22846;42.654;23.314;2023-12-20T07:29:31;15.07;;;10.23;;
31336;SDS011;22846;42.654;23.314;2023-12-20T07:31:56;15.00;;;10.52;;
31336;SDS011;22846;42.654;23.314;2023-12-20T07:34:22;15.25;;;10.40;;
31336;SDS011;22846;42.654;23.314;2023-12-20T07:36:47;16.33;;;10.63;;
31336;SDS011;22846;42.654;23.314;2023-12-20T07:39:13;14.23;;;10.43;;
31336;SDS011;22846;42.654;23.314;2023-12-20T07:41:39;15.38;;;10.73;;
31336;SDS011;22846;42.654;23.314;2023-12-20T07:44:04;14.20;;;10.05;;
31336;SDS011;22846;42.654;23.314;2023-12-20T07:46:30;16.52;;;10.80;;
31336;SDS011;22846;42.654;23.314;2023-12-20T07:48:55;15.18;;;10.38;;
31336;SDS011;22846;42.654;23.314;2023-12-20T07:51:21;15.55;;;10.52;;
31336;SDS011;22846;42.654;23.314;2023-12-20T07:53:46;14.95;;;10.48;;
31336;SDS011;22846;42.654;23.314;2023-12-20T07:56:17;20.27;;;11.13;;
31336;SDS011;22846;42.654;23.314;2023-12-20T07:58:44;13.80;;;10.48;;
31336;SDS011;22846;42.654;23.314;2023-12-20T08:01:10;16.58;;;11.43;;
31336;SDS011;22846;42.654;23.314;2023-12-20T08:03:36;15.68;;;10.93;;
31336;SDS011;22846;42.654;23.314;2023-12-20T08:06:02;15.57;;;10.57;;
31336;SDS011;22846;42.654;23.314;2023-12-20T08:08:27;13.68;;;10.63;;
31336;SDS011;22846;42.654;23.314;2023-12-20T08:10:53;15.70;;;11.30;;
31336;SDS011;22846;42.654;23.314;2023-12-20T08:13:18;13.73;;;10.25;;
31336;SDS011;22846;42.654;23.314;2023-12-20T08:15:44;13.75;;;9.95;;
31336;SDS011;22846;42.654;23.314;2023-12-20T08:18:09;14.35;;;10.32;;
31336;SDS011;22846;42.654;23.314;2023-12-20T08:20:34;14.18;;;9.85;;
31336;SDS011;22846;42.654;23.314;2023-12-20T08:23:00;16.35;;;11.13;;
31336;SDS011;22846;42.654;23.314;2023-12-20T08:25:26;15.65;;;10.52;;
31336;SDS011;22846;42.654;23.314;2023-12-20T08:27:52;13.40;;;10.10;;
31336;SDS011;22846;42.654;23.314;2023-12-20T08:30:18;15.52;;;11.15;;
31336;SDS011;22846;42.654;23.314;2023-12-20T08:32:46;15.38;;;10.65;;
31336;SDS011;22846;42.654;23.314;2023-12-20T08:35:13;14.45;;;10.82;;
31336;SDS011;22846;42.654;23.314;2023-12-20T08:37:38;13.88;;;10.10;;
31336;SDS011;22846;42.654;23.314;2023-12-20T08:40:03;15.25;;;10.70;;
31336;SDS011;22846;42.654;23.314;2023-12-20T08:42:30;19.02;;;11.85;;
31336;SDS011;22846;42.654;23.314;2023-12-20T08:44:57;15.65;;;11.63;;
31336;SDS011;22846;42.654;23.314;2023-12-20T08:47:23;17.60;;;11.70;;
31336;SDS011;22846;42.654;23.314;2023-12-20T08:49:49;17.08;;;12.10;;
31336;SDS011;22846;42.654;23.314;2023-12-20T08:52:14;16.13;;;11.23;;
31336;SDS011;22846;42.654;23.314;2023-12-20T08:54:39;18.17;;;13.05;;
31336;SDS011;22846;42.654;23.314;2023-12-20T08:57:05;17.08;;;12.35;;
31336;SDS011;22846;42.654;23.314;2023-12-20T08:59:32;17.20;;;12.50;;
31336;SDS011;22846;42.654;23.314;2023-12-20T09:01:57;21.98;;;14.25;;
31336;SDS011;22846;42.654;23.314;2023-12-20T09:04:23;19.83;;;13.38;;
31336;SDS011;22846;42.654;23.314;2023-12-20T09:06:48;20.80;;;14.18;;
31336;SDS011;22846;42.654;23.314;2023-12-20T09:09:14;20.33;;;14.27;;
31336;SDS011;22846;42.654;23.314;2023-12-20T09:11:39;19.50;;;13.57;;
31336;SDS011;22846;42.654;23.314;2023-12-20T09:14:05;20.08;;;13.98;;
31336;SDS011;22846;42.654;23.314;2023-12-20T09:16:30;20.70;;;14.10;;
31336;SDS011;22846;42.654;23.314;2023-12-20T09:18:56;18.23;;;13.75;;
31336;SDS011;22846;42.654;23.314;2023-12-20T09:21:22;22.05;;;14.25;;
31336;SDS011;22846;42.654;23.314;2023-12-20T09:23:48;20.20;;;13.82;;
31336;SDS011;22846;42.654;23.314;2023-12-20T09:26:13;19.85;;;13.68;;
31336;SDS011;22846;42.654;23.314;2023-12-20T09:28:38;18.88;;;13.70;;
31336;SDS011;22846;42.654;23.314;2023-12-20T09:31:05;19.52;;;13.13;;
31336;SDS011;22846;42.654;23.314;2023-12-20T09:33:31;17.38;;;12.32;;
31336;SDS011;22846;42.654;23.314;2023-12-20T09:35:57;17.25;;;12.65;;
31336;SDS011;22846;42.654;23.314;2023-12-20T09:38:23;23.35;;;13.98;;
31336;SDS011;22846;42.654;23.314;2023-12-20T09:40:48;18.17;;;13.00;;
31336;SDS011;22846;42.654;23.314;2023-12-20T09:43:14;17.30;;;13.10;;
31336;SDS011;22846;42.654;23.314;2023-12-20T09:45:44;16.67;;;12.00;;
31336;SDS011;22846;42.654;23.314;2023-12-20T09:48:11;18.60;;;13.43;;
31336;SDS011;22846;42.654;23.314;2023-12-20T09:50:39;17.48;;;12.70;;
31336;SDS011;22846;42.654;23.314;2023-12-20T09:53:05;16.73;;;12.13;;
31336;SDS011;22846;42.654;23.314;2023-12-20T09:55:35;16.33;;;12.80;;
31336;SDS011;22846;42.654;23.314;2023-12-20T09:58:01;18.15;;;13.25;;
31336;SDS011;22846;42.654;23.314;2023-12-20T10:00:27;17.70;;;12.82;;
31336;SDS011;22846;42.654;23.314;2023-12-20T10:02:59;17.70;;;12.70;;
31336;SDS011;22846;42.654;23.314;2023-12-20T10:05:30;18.02;;;13.38;;
31336;SDS011;22846;42.654;23.314;2023-12-20T10:07:57;17.85;;;12.52;;
31336;SDS011;22846;42.654;23.314;2023-12-20T10:10:23;15.57;;;12.15;;
31336;SDS011;22846;42.654;23.314;2023-12-20T10:13:07;16.85;;;12.02;;
31336;SDS011;22846;42.654;23.314;2023-12-20T10:15:35;17.20;;;12.43;;
31336;SDS011;22846;42.654;23.314;2023-12-20T10:18:02;18.83;;;13.98;;
31336;SDS011;22846;42.654;23.314;2023-12-20T10:20:28;19.52;;;13.82;;
31336;SDS011;22846;42.654;23.314;2023-12-20T10:22:55;18.15;;;13.77;;
31336;SDS011;22846;42.654;23.314;2023-12-20T10:25:21;16.85;;;12.70;;
31336;SDS011;22846;42.654;23.314;2023-12-20T10:27:47;18.45;;;13.10;;
31336;SDS011;22846;42.654;23.314;2023-12-20T10:30:15;18.58;;;13.43;;
31336;SDS011;22846;42.654;23.314;2023-12-20T10:32:42;18.38;;;13.32;;
31336;SDS011;22846;42.654;23.314;2023-12-20T10:35:08;18.88;;;13.23;;
31336;SDS011;22846;42.654;23.314;2023-12-20T10:37:37;18.67;;;13.65;;
31336;SDS011;22846;42.654;23.314;2023-12-20T10:40:03;17.88;;;13.15;;
31336;SDS011;22846;42.654;23.314;2023-12-20T10:42:31;16.77;;;12.10;;
31336;SDS011;22846;42.654;23.314;2023-12-20T10:44:58;16.10;;;12.20;;
31336;SDS011;22846;42.654;23.314;2023-12-20T10:47:25;16.98;;;12.60;;
31336;SDS011;22846;42.654;23.314;2023-12-20T10:49:53;15.77;;;11.98;;
31336;SDS011;22846;42.654;23.314;2023-12-20T10:52:19;17.85;;;12.57;;
31336;SDS011;22846;42.654;23.314;2023-12-20T10:54:48;18.38;;;13.43;;
31336;SDS011;22846;42.654;23.314;2023-12-20T10:57:13;17.98;;;13.50;;
31336;SDS011;22846;42.654;23.314;2023-12-20T10:59:43;17.25;;;12.95;;
31336;SDS011;22846;42.654;23.314;2023-12-20T11:02:12;18.05;;;12.95;;
31336;SDS011;22846;42.654;23.314;2023-12-20T11:07:25;16.33;;;12.48;;
31336;SDS011;22846;42.654;23.314;2023-12-20T11:13:24;19.13;;;13.27;;
31336;SDS011;22846;42.654;23.314;2023-12-20T11:15:55;16.02;;;12.20;;
31336;SDS011;22846;42.654;23.314;2023-12-20T11:18:21;17.92;;;13.57;;
31336;SDS011;22846;42.654;23.314;2023-12-20T11:20:55;16.73;;;11.90;;
31336;SDS011;22846;42.654;23.314;2023-12-20T11:23:25;19.33;;;13.02;;
31336;SDS011;22846;42.654;23.314;2023-12-20T11:25:54;18.75;;;12.77;;
31336;SDS011;22846;42.654;23.314;2023-12-20T11:28:24;16.88;;;12.32;;
31336;SDS011;22846;42.654;23.314;2023-12-20T11:30:54;16.23;;;12.20;;
31336;SDS011;22846;42.654;23.314;2023-12-20T11:33:22;17.17;;;11.82;;
31336;SDS011;22846;42.654;23.314;2023-12-20T11:35:49;16.27;;;12.25;;
31336;SDS011;22846;42.654;23.314;2023-12-20T11:38:14;18.42;;;13.05;;
31336;SDS011;22846;42.654;23.314;2023-12-20T11:40:43;16.70;;;12.63;;
31336;SDS011;22846;42.654;23.314;2023-12-20T11:43:09;17.98;;;12.32;;
31336;SDS011;22846;42.654;23.314;2023-12-20T11:45:34;18.20;;;12.32;;
31336;SDS011;22846;42.654;23.314;2023-12-20T11:48:01;17.88;;;12.30;;
31336;SDS011;22846;42.654;23.314;2023-12-20T11:50:28;16.58;;;12.30;;
31336;SDS011;22846;42.654;23.314;2023-12-20T11:52:55;17.70;;;13.27;;
31336;SDS011;22846;42.654;23.314;2023-12-20T11:55:22;16.15;;;12.10;;
31336;SDS011;22846;42.654;23.314;2023-12-20T11:57:49;15.25;;;11.48;;
31336;SDS011;22846;42.654;23.314;2023-12-20T12:00:15;15.90;;;12.35;;
31336;SDS011;22846;42.654;23.314;2023-12-20T12:02:41;18.08;;;12.63;;
31336;SDS011;22846;42.654;23.314;2023-12-20T12:05:06;17.17;;;12.43;;
31336;SDS011;22846;42.654;23.314;2023-12-20T12:07:33;16.90;;;12.23;;
31336;SDS011;22846;42.654;23.314;2023-12-20T12:09:59;15.23;;;11.77;;
31336;SDS011;22846;42.654;23.314;2023-12-20T12:12:25;16.05;;;11.93;;
31336;SDS011;22846;42.654;23.314;2023-12-20T12:14:52;17.63;;;11.75;;
31336;SDS011;22846;42.654;23.314;2023-12-20T12:17:18;17.40;;;12.68;;
31336;SDS011;22846;42.654;23.314;2023-12-20T12:19:43;17.25;;;12.02;;
31336;SDS011;22846;42.654;23.314;2023-12-20T12:22:10;17.55;;;12.40;;
31336;SDS011;22846;42.654;23.314;2023-12-20T12:24:44;15.85;;;12.30;;
31336;SDS011;22846;42.654;23.314;2023-12-20T12:27:12;15.80;;;12.13;;
31336;SDS011;22846;42.654;23.314;2023-12-20T12:29:38;18.27;;;12.82;;
31336;SDS011;22846;42.654;23.314;2023-12-20T12:32:04;16.85;;;11.98;;
31336;SDS011;22846;42.654;23.314;2023-12-20T12:34:33;15.27;;;11.90;;
31336;SDS011;22846;42.654;23.314;2023-12-20T12:37:00;15.95;;;12.00;;
31336;SDS011;22846;42.654;23.314;2023-12-20T12:39:25;18.35;;;12.25;;
31336;SDS011;22846;42.654;23.314;2023-12-20T12:41:51;16.48;;;11.70;;
31336;SDS011;22846;42.654;23.314;2023-12-20T12:44:17;15.85;;;11.60;;
31336;SDS011;22846;42.654;23.314;2023-12-20T12:46:43;17.15;;;11.90;;
31336;SDS011;22846;42.654;23.314;2023-12-20T12:49:09;16.98;;;12.00;;
31336;SDS011;22846;42.654;23.314;2023-12-20T12:51:34;15.32;;;11.30;;
31336;SDS011;22846;42.654;23.314;2023-12-20T12:54:00;16.65;;;12.15;;
31336;SDS011;22846;42.654;23.314;2023-12-20T12:56:26;15.73;;;12.07;;
31336;SDS011;22846;42.654;23.314;2023-12-20T12:58:51;16.10;;;12.05;;
31336;SDS011;22846;42.654;23.314;2023-12-20T13:01:16;18.38;;;12.25;;
31336;SDS011;22846;42.654;23.314;2023-12-20T13:03:42;14.65;;;11.95;;
31336;SDS011;22846;42.654;23.314;2023-12-20T13:06:08;15.63;;;11.70;;
31336;SDS011;22846;42.654;23.314;2023-12-20T13:08:34;15.57;;;11.48;;
31336;SDS011;22846;42.654;23.314;2023-12-20T13:11:01;16.13;;;11.95;;
31336;SDS011;22846;42.654;23.314;2023-12-20T13:13:29;16.35;;;12.35;;
31336;SDS011;22846;42.654;23.314;2023-12-20T13:15:55;15.48;;;10.90;;
31336;SDS011;22846;42.654;23.314;2023-12-20T13:18:20;15.50;;;11.48;;
31336;SDS011;22846;42.654;23.314;2023-12-20T13:20:47;15.77;;;11.82;;
31336;SDS011;22846;42.654;23.314;2023-12-20T13:23:12;16.80;;;11.57;;
31336;SDS011;22846;42.654;23.314;2023-12-20T13:25:39;13.90;;;10.95;;
31336;SDS011;22846;42.654;23.314;2023-12-20T13:28:05;14.68;;;10.75;;
31336;SDS011;22846;42.654;23.314;2023-12-20T13:30:30;15.73;;;11.55;;
31336;SDS011;22846;42.654;23.314;2023-12-20T13:32:56;15.32;;;11.60;;
31336;SDS011;22846;42.654;23.314;2023-12-20T13:35:21;15.65;;;11.10;;
31336;SDS011;22846;42.654;23.314;2023-12-20T13:37:47;16.52;;;12.07;;
31336;SDS011;22846;42.654;23.314;2023-12-20T13:40:12;14.30;;;10.95;;
31336;SDS011;22846;42.654;23.314;2023-12-20T13:42:38;14.35;;;10.65;;
31336;SDS011;22846;42.654;23.314;2023-12-20T13:45:04;15.07;;;11.38;;
31336;SDS011;22846;42.654;23.314;2023-12-20T13:47:31;15.50;;;11.30;;
31336;SDS011;22846;42.654;23.314;2023-12-20T13:49:57;14.90;;;11.23;;
31336;SDS011;22846;42.654;23.314;2023-12-20T13:52:23;15.00;;;10.95;;
31336;SDS011;22846;42.654;23.314;2023-12-20T13:54:48;14.77;;;11.40;;
31336;SDS011;22846;42.654;23.314;2023-12-20T13:57:14;16.60;;;11.68;;
31336;SDS011;22846;42.654;23.314;2023-12-20T13:59:39;17.13;;;11.52;;
31336;SDS011;22846;42.654;23.314;2023-12-20T14:02:05;16.05;;;11.65;;
31336;SDS011;22846;42.654;23.314;2023-12-20T14:04:30;16.70;;;11.30;;
31336;SDS011;22846;42.654;23.314;2023-12-20T14:06:56;13.15;;;10.00;;
31336;SDS011;22846;42.654;23.314;2023-12-20T14:09:22;12.48;;;9.43;;
31336;SDS011;22846;42.654;23.314;2023-12-20T14:11:47;12.82;;;9.10;;
31336;SDS011;22846;42.654;23.314;2023-12-20T14:14:13;13.23;;;9.48;;
31336;SDS011;22846;42.654;23.314;2023-12-20T14:16:38;14.90;;;10.25;;